Time;durP1;ratioP1;P1;durP2;ratioP2;P2;SDS_P1;SDS_P2;PMS_P1;PMS_P2;Temp;Humidity;BMP_temperature;BMP_pressure;BME280_temperature;BME280_humidity;BME280_pressure;Samples;Min_cycle;Max_cycle;Signal;HPM_P1;HPM_P2
2023/03/16 00:02:18;;;;;;;;;;;4.50;99.90;;;;;;4969125;28;20043;-77
2023/03/16 00:04:46;;;;;;;7.50;2.80;;;4.40;99.90;;;;;;4943698;29;20294;-77
2023/03/16 00:07:13;;;;;;;5.65;2.60;;;4.70;99.90;;;;;;4954137;29;20133;-77
2023/03/16 00:09:40;;;;;;;5.28;2.63;;;4.30;99.90;;;;;;4951371;28;20054;-77
2023/03/16 00:12:17;;;;;;;5.00;2.63;;;4.50;99.90;;;;;;4951557;29;20038;-77
2023/03/16 00:14:45;;;;;;;4.18;2.42;;;4.60;99.90;;;;;;4954439;29;20043;-78
2023/03/16 00:17:18;;;;;;;4.38;2.40;;;4.60;99.90;;;;;;4953708;29;20043;-78
2023/03/16 00:20:05;;;;;;;6.57;2.97;;;4.70;99.90;;;;;;4953036;29;20384;-77
2023/03/16 00:22:32;;;;;;;4.68;2.72;;;4.40;99.90;;;;;;4952103;29;20487;-77
2023/03/16 00:24:58;;;;;;;7.00;3.10;;;4.50;99.90;;;;;;4953349;28;20480;-77
2023/03/16 00:27:27;;;;;;;;;;;4.50;99.90;;;;;;4935765;29;20060;-77
2023/03/16 00:29:56;;;;;;;7.13;2.63;;;4.50;99.90;;;;;;4950652;29;19922;-77
2023/03/16 00:32:28;;;;;;;5.70;2.70;;;4.40;99.90;;;;;;4953706;29;20496;-76
2023/03/16 00:34:54;;;;;;;7.13;2.88;;;4.50;99.90;;;;;;4944364;28;20440;-76
2023/03/16 00:37:22;;;;;;;;;;;4.40;99.90;;;;;;4957339;29;20145;-76
2023/03/16 00:39:48;;;;;;;7.95;2.80;;;4.30;99.90;;;;;;4957845;29;19929;-75
2023/03/16 00:42:14;;;;;;;;;;;4.50;99.90;;;;;;4957346;29;20055;-76
2023/03/16 00:44:42;;;;;;;4.90;2.95;;;4.40;99.90;;;;;;4956870;29;20302;-77
2023/03/16 00:47:13;;;;;;;4.97;2.88;;;4.40;99.90;;;;;;4957845;29;20050;-77
2023/03/16 00:49:41;;;;;;;7.82;3.38;;;4.30;99.90;;;;;;4956295;29;20167;-78
2023/03/16 00:52:15;;;;;;;6.25;3.25;;;4.40;99.90;;;;;;4957489;29;20039;-77
2023/03/16 00:54:42;;;;;;;4.60;2.65;;;5.70;99.90;;;;;;4955874;29;20131;-77
2023/03/16 00:57:10;;;;;;;6.18;2.90;;;4.40;99.90;;;;;;4957778;29;20031;-77
2023/03/16 00:59:37;;;;;;;5.53;3.10;;;4.30;99.90;;;;;;4956317;29;20047;-77
2023/03/16 01:02:04;;;;;;;7.53;3.35;;;4.30;99.90;;;;;;4957904;29;20064;-77
2023/03/16 01:04:31;;;;;;;7.38;2.90;;;4.20;99.90;;;;;;4939131;29;20082;-77
2023/03/16 01:06:57;;;;;;;9.32;3.70;;;4.20;99.90;;;;;;4940326;29;20527;-78
2023/03/16 01:09:22;;;;;;;;;;;5.00;99.90;;;;;;4940646;29;20082;-77
2023/03/16 01:11:52;;;;;;;6.07;3.20;;;3.90;99.90;;;;;;4939132;29;20718;-77
2023/03/16 01:14:18;;;;;;;9.25;3.30;;;4.10;99.90;;;;;;4940155;29;20462;-77
2023/03/16 01:16:44;;;;;;;9.20;2.95;;;4.10;99.90;;;;;;4957340;29;20517;-77
2023/03/16 01:19:11;;;;;;;4.90;2.67;;;4.20;99.90;;;;;;4955237;29;20098;-77
2023/03/16 01:21:38;;;;;;;7.63;3.30;;;4.70;99.90;;;;;;4957241;29;20047;-77
2023/03/16 01:24:04;;;;;;;5.35;2.75;;;4.20;99.90;;;;;;4957132;29;20046;-78
2023/03/16 01:26:30;;;;;;;6.15;3.50;;;4.30;99.90;;;;;;4956220;29;20133;-76
2023/03/16 01:28:55;;;;;;;;;;;4.10;99.90;;;;;;4972476;28;20135;-77
2023/03/16 01:31:24;;;;;;;6.07;3.10;;;4.10;99.90;;;;;;4956981;29;19965;-77
2023/03/16 01:33:50;;;;;;;;;;;4.30;99.90;;;;;;4955451;29;20098;-77
2023/03/16 01:36:18;;;;;;;6.30;3.13;;;4.80;99.90;;;;;;4956736;29;20290;-77
2023/03/16 01:38:44;;;;;;;10.18;3.60;;;3.90;99.90;;;;;;4957175;28;20043;-77
2023/03/16 01:41:10;;;;;;;9.48;3.85;;;4.20;99.90;;;;;;4939172;29;20134;-77
2023/03/16 01:43:36;;;;;;;;;;;4.10;99.90;;;;;;4957271;29;20047;-77
2023/03/16 01:46:05;;;;;;;5.97;3.67;;;4.50;99.90;;;;;;4939705;29;19923;-77
2023/03/16 01:48:50;;;;;;;7.68;4.03;;;4.20;99.90;;;;;;4953554;28;20113;-77
2023/03/16 01:51:31;;;;;;;5.28;2.65;;;4.50;99.90;;;;;;4956959;29;20447;-77
2023/03/16 01:54:05;;;;;;;5.72;3.25;;;4.40;99.90;;;;;;4938857;29;20669;-77
2023/03/16 01:56:40;;;;;;;6.50;4.18;;;4.40;99.90;;;;;;4956461;29;20078;-77
2023/03/16 01:59:10;;;;;;;4.88;3.33;;;4.50;99.90;;;;;;4956950;29;20047;-77
2023/03/16 02:01:36;;;;;;;6.00;3.42;;;4.40;99.90;;;;;;4938281;29;20047;-77
2023/03/16 02:04:41;;;;;;;;;;;4.50;99.90;;;;;;4956224;29;20059;-77
2023/03/16 02:07:08;;;;;;;4.50;2.65;;;4.50;99.90;;;;;;4918846;29;19930;-77
2023/03/16 02:09:38;;;;;;;6.25;3.63;;;4.50;99.90;;;;;;4904431;29;20373;-77
2023/03/16 02:12:04;;;;;;;5.85;3.50;;;4.60;99.90;;;;;;4910550;29;20062;-77
2023/03/16 02:14:30;;;;;;;6.93;3.85;;;4.50;99.90;;;;;;4937014;29;20043;-78
2023/03/16 02:16:56;;;;;;;;;;;4.60;99.90;;;;;;4919977;29;20110;-78
2023/03/16 02:19:41;;;;;;;7.18;3.65;;;4.70;99.90;;;;;;4941974;29;20381;-77
2023/03/16 02:22:08;;;;;;;7.28;4.10;;;4.50;99.90;;;;;;4938715;29;20047;-78
2023/03/16 02:24:36;;;;;;;4.95;3.42;;;4.50;99.90;;;;;;4938767;29;20134;-77
2023/03/16 02:27:09;;;;;;;11.40;3.67;;;5.10;99.90;;;;;;4939118;29;20050;-78
2023/03/16 02:30:02;;;;;;;7.97;3.72;;;4.60;99.90;;;;;;4937883;29;20043;-78
2023/03/16 02:32:30;;;;;;;6.30;3.30;;;3.70;99.90;;;;;;4938570;29;20051;-77
2023/03/16 02:34:58;;;;;;;4.80;3.20;;;4.60;99.90;;;;;;4938681;29;20492;-77
2023/03/16 02:37:28;;;;;;;7.35;3.72;;;4.90;99.90;;;;;;4954938;29;20503;-77
2023/03/16 02:39:53;;;;;;;7.25;3.38;;;4.80;99.90;;;;;;4938587;29;20048;-77
2023/03/16 02:42:21;;;;;;;;;;;4.70;99.90;;;;;;4956021;29;20118;-78
2023/03/16 02:44:56;;;;;;;9.35;3.80;;;4.60;99.90;;;;;;4955022;29;19929;-77
2023/03/16 02:47:41;;;;;;;8.32;3.85;;;4.60;99.90;;;;;;4938524;29;20089;-77
2023/03/16 02:50:10;;;;;;;10.77;4.50;;;4.60;99.90;;;;;;4937835;29;20051;-77
2023/03/16 02:52:37;;;;;;;6.80;3.88;;;4.60;99.90;;;;;;4937990;29;20121;-77
2023/03/16 02:55:05;;;;;;;7.10;4.07;;;4.60;99.90;;;;;;4938537;29;20404;-78
2023/03/16 02:57:30;;;;;;;6.75;3.97;;;4.60;99.90;;;;;;4954644;29;20062;-78
2023/03/16 02:59:56;;;;;;;;;;;5.30;99.90;;;;;;4955758;28;20043;-77
2023/03/16 03:02:22;;;;;;;6.57;3.60;;;4.60;99.90;;;;;;4954910;29;19922;-77
2023/03/16 03:04:53;;;;;;;;;;;4.60;99.90;;;;;;4954781;29;20145;-77
2023/03/16 03:07:20;;;;;;;9.07;4.75;;;6.30;99.90;;;;;;4937837;29;20378;-77
2023/03/16 03:09:45;;;;;;;7.47;4.13;;;4.60;99.90;;;;;;4938415;29;20051;-77
2023/03/16 03:12:11;;;;;;;;;;;4.70;99.90;;;;;;4955225;29;20498;-77
2023/03/16 03:14:38;;;;;;;6.82;3.95;;;4.70;99.90;;;;;;4937437;29;20157;-77
2023/03/16 03:17:08;;;;;;;9.27;4.00;;;4.70;99.90;;;;;;4955010;29;20043;-78
2023/03/16 03:19:35;;;;;;;9.18;3.72;;;4.70;99.90;;;;;;4937056;29;20483;-78
2023/03/16 03:22:05;;;;;;;6.30;3.10;;;4.70;99.90;;;;;;4938136;29;20058;-78
2023/03/16 03:24:32;;;;;;;6.38;3.60;;;4.70;99.90;;;;;;4937901;29;20061;-78
2023/03/16 03:27:04;;;;;;;5.65;3.90;;;4.70;99.90;;;;;;4935030;29;20415;-77
2023/03/16 03:29:33;;;;;;;9.65;3.55;;;4.70;99.90;;;;;;4969726;28;20554;-77
2023/03/16 03:32:05;;;;;;;5.25;3.88;;;4.70;99.90;;;;;;4935911;29;20142;-78
2023/03/16 03:34:31;;;;;;;6.53;3.80;;;4.70;99.90;;;;;;4953776;29;20047;-78
2023/03/16 03:36:57;;;;;;;;;;;5.50;99.90;;;;;;4937946;29;20035;-77
2023/03/16 03:39:23;;;;;;;5.50;3.45;;;4.80;99.90;;;;;;4969012;28;20267;-77
2023/03/16 03:41:53;;;;;;;6.53;3.10;;;4.90;99.90;;;;;;4938175;29;20109;-78
2023/03/16 03:44:20;;;;;;;5.95;3.78;;;5.50;99.90;;;;;;4937552;29;20476;-77
2023/03/16 03:46:49;;;;;;;8.13;3.65;;;4.90;99.90;;;;;;4954126;29;20049;-78
2023/03/16 03:49:14;;;;;;;7.72;3.67;;;4.70;99.90;;;;;;4953594;29;20051;-78
2023/03/16 03:51:40;;;;;;;;;;;4.70;99.90;;;;;;4954629;29;20054;-78
2023/03/16 03:54:06;;;;;;;7.25;3.80;;;4.80;99.90;;;;;;4952792;29;19922;-78
2023/03/16 03:56:32;;;;;;;6.03;3.72;;;4.70;99.90;;;;;;4954203;29;20059;-78
2023/03/16 03:58:58;;;;;;;;;;;4.80;99.90;;;;;;4937901;29;20039;-77
2023/03/16 04:01:23;;;;;;;5.47;4.28;;;4.90;99.90;;;;;;4936443;29;19962;-78
2023/03/16 04:03:49;;;;;;;;;;;5.20;99.90;;;;;;4937691;29;20102;-77
2023/03/16 04:06:15;;;;;;;6.72;3.50;;;4.90;99.90;;;;;;4937584;29;19923;-78
2023/03/16 04:08:40;;;;;;;;;;;4.70;99.90;;;;;;4936561;29;20059;-78
2023/03/16 04:11:06;;;;;;;6.93;3.58;;;4.80;99.90;;;;;;4954118;28;19929;-78
2023/03/16 04:13:32;;;;;;;;;;;4.90;99.90;;;;;;4953551;29;20427;-78
2023/03/16 04:16:01;;;;;;;6.03;3.75;;;4.80;99.90;;;;;;4952447;29;20009;-77
2023/03/16 04:18:28;;;;;;;4.93;3.05;;;5.30;99.90;;;;;;4938119;29;20058;-77
2023/03/16 04:20:54;;;;;;;7.20;3.88;;;4.80;99.90;;;;;;4937305;29;20065;-77
2023/03/16 04:23:20;;;;;;;;;;;4.80;99.90;;;;;;4953928;29;20047;-77
2023/03/16 04:25:48;;;;;;;6.97;4.25;;;5.10;99.90;;;;;;4952893;29;19922;-78
2023/03/16 04:28:16;;;;;;;6.35;3.88;;;4.70;99.90;;;;;;4944066;29;20056;-77
2023/03/16 04:30:42;;;;;;;10.18;3.90;;;5.50;99.90;;;;;;4952031;29;20122;-77
2023/03/16 04:33:07;;;;;;;;;;;4.90;99.90;;;;;;4955001;29;20501;-77
2023/03/16 04:35:33;;;;;;;9.73;4.78;;;4.60;99.90;;;;;;4953390;28;19922;-77
2023/03/16 04:37:58;;;;;;;;;;;4.60;99.90;;;;;;4953360;29;20057;-77
2023/03/16 04:40:24;;;;;;;8.25;4.18;;;4.60;99.90;;;;;;4953660;28;19941;-77
2023/03/16 04:42:50;;;;;;;;;;;4.70;99.90;;;;;;4953458;29;20043;-77
2023/03/16 04:45:17;;;;;;;7.88;3.83;;;5.00;99.90;;;;;;4937158;29;19970;-77
2023/03/16 04:47:45;;;;;;;5.38;3.20;;;4.70;99.90;;;;;;4953945;28;20043;-76
2023/03/16 04:50:11;;;;;;;8.80;4.05;;;4.70;99.90;;;;;;4953437;29;20518;-77
2023/03/16 04:52:37;;;;;;;;;;;4.70;99.90;;;;;;4968585;28;20400;-77
2023/03/16 04:55:07;;;;;;;6.10;3.83;;;4.40;99.90;;;;;;4953756;28;19933;-77
2023/03/16 04:57:33;;;;;;;8.13;4.38;;;4.70;99.90;;;;;;4952950;29;20364;-78
2023/03/16 04:59:59;;;;;;;7.50;3.97;;;4.60;99.90;;;;;;4954008;29;20571;-77
2023/03/16 05:02:25;;;;;;;;;;;4.50;99.90;;;;;;4954023;29;20114;-77
2023/03/16 05:04:51;;;;;;;6.20;3.65;;;4.60;99.90;;;;;;4953193;29;19926;-77
2023/03/16 05:07:16;;;;;;;;;;;4.70;99.90;;;;;;4954090;29;20475;-77
2023/03/16 05:09:42;;;;;;;8.50;4.25;;;4.60;99.90;;;;;;4953587;29;20259;-77
2023/03/16 05:12:08;;;;;;;;;;;4.60;99.90;;;;;;4968422;28;20472;-77
2023/03/16 05:14:34;;;;;;;6.38;3.85;;;4.60;99.90;;;;;;4953732;29;20008;-77
2023/03/16 05:17:02;;;;;;;7.80;4.22;;;4.50;99.90;;;;;;4936105;29;20047;-77
2023/03/16 05:19:29;;;;;;;6.22;3.63;;;4.50;99.90;;;;;;4967900;28;20043;-78
2023/03/16 05:21:55;;;;;;;9.38;4.65;;;4.70;99.90;;;;;;4936297;29;20507;-78
2023/03/16 05:24:22;;;;;;;5.90;3.85;;;4.70;99.90;;;;;;4956979;29;20055;-77
2023/03/16 05:26:48;;;;;;;5.80;3.67;;;4.60;99.90;;;;;;4939266;29;20055;-77
2023/03/16 05:29:14;;;;;;;;;;;4.50;99.90;;;;;;4957683;29;20407;-77
2023/03/16 05:31:39;;;;;;;8.60;5.07;;;4.60;99.90;;;;;;4939613;29;19974;-77
2023/03/16 05:34:05;;;;;;;;;;;4.50;99.90;;;;;;4955807;29;20547;-77
2023/03/16 05:36:31;;;;;;;6.93;4.57;;;4.50;99.90;;;;;;4956387;29;20024;-77
2023/03/16 05:38:57;;;;;;;;;;;5.10;99.90;;;;;;4956362;29;20070;-77
2023/03/16 05:41:25;;;;;;;6.90;4.40;;;4.50;99.90;;;;;;4938983;29;19918;-77
2023/03/16 05:43:51;;;;;;;8.57;4.35;;;4.60;99.90;;;;;;4955614;29;20059;-78
2023/03/16 05:46:16;;;;;;;;;;;4.60;99.90;;;;;;4952798;29;20141;-77
2023/03/16 05:48:42;;;;;;;7.38;4.25;;;4.40;99.90;;;;;;4954799;29;20301;-77
2023/03/16 05:51:07;;;;;;;;;;;4.40;99.90;;;;;;4939635;29;20046;-77
2023/03/16 05:53:34;;;;;;;7.85;4.50;;;4.50;99.90;;;;;;4955714;29;20306;-75
2023/03/16 05:56:00;;;;;;;8.00;4.53;;;4.40;99.90;;;;;;4956501;29;20043;-75
2023/03/16 05:58:26;;;;;;;;;;;4.40;99.90;;;;;;4956440;29;20543;-76
2023/03/16 06:00:51;;;;;;;8.65;4.57;;;4.50;99.90;;;;;;4955693;29;19926;-77
2023/03/16 06:03:17;;;;;;;;;;;4.50;99.90;;;;;;4939751;29;20039;-76
2023/03/16 06:05:42;;;;;;;7.32;4.18;;;4.60;99.90;;;;;;4938903;29;19973;-76
2023/03/16 06:08:08;;;;;;;;;;;4.60;99.90;;;;;;4939136;29;20062;-77
2023/03/16 06:10:35;;;;;;;11.13;4.13;;;4.60;99.90;;;;;;4934776;29;19922;-81
2023/03/16 06:13:00;;;;;;;9.80;4.80;;;4.60;99.90;;;;;;4956444;29;20050;-78
2023/03/16 06:15:29;;;;;;;;;;;4.60;99.90;;;;;;4954543;29;20043;-77
2023/03/16 06:17:55;;;;;;;6.60;3.85;;;4.70;99.90;;;;;;4954822;29;20358;-75
2023/03/16 06:20:20;;;;;;;;;;;4.60;99.90;;;;;;4937362;29;20510;-79
2023/03/16 06:22:46;;;;;;;6.07;4.18;;;4.90;99.90;;;;;;4954793;29;19923;-80
2023/03/16 06:25:12;;;;;;;;;;;4.70;99.90;;;;;;4956419;29;20149;-77
2023/03/16 06:27:38;;;;;;;6.57;3.83;;;4.70;99.90;;;;;;4955753;29;19926;-77
2023/03/16 06:30:07;;;;;;;9.40;4.70;;;4.60;99.90;;;;;;4955321;29;20130;-79
2023/03/16 06:32:34;;;;;;;9.50;4.30;;;4.70;99.90;;;;;;4955255;28;20035;-76
2023/03/16 06:35:01;;;;;;;6.68;4.28;;;4.70;99.90;;;;;;4955809;29;20048;-74
2023/03/16 06:37:27;;;;;;;8.93;4.53;;;;;;;;;;4938086;29;20043;-80
2023/03/16 06:39:53;;;;;;;7.88;4.63;;;4.80;99.90;;;;;;4955757;29;20051;-72
2023/03/16 06:42:19;;;;;;;;;;;4.70;99.90;;;;;;4954833;29;20388;-85
2023/03/16 06:44:44;;;;;;;6.30;4.05;;;4.70;99.90;;;;;;4955552;29;19919;-79
2023/03/16 06:47:10;;;;;;;;;;;4.60;99.90;;;;;;4955743;29;20039;-80
2023/03/16 06:49:36;;;;;;;5.40;3.60;;;4.70;99.90;;;;;;4937300;29;20049;-81
2023/03/16 06:52:02;;;;;;;;;;;4.70;99.90;;;;;;4938862;29;20050;-74
2023/03/16 06:54:28;;;;;;;8.50;4.85;;;4.80;99.90;;;;;;4955351;29;20000;-77
2023/03/16 06:56:54;;;;;;;8.35;4.15;;;4.80;99.90;;;;;;4953041;29;20047;-79
2023/03/16 06:59:20;;;;;;;;;;;5.60;99.90;;;;;;4954605;28;20049;-82
2023/03/16 07:01:49;;;;;;;9.70;5.38;;;4.70;99.90;;;;;;4937911;29;20017;-81
2023/03/16 07:04:15;;;;;;;6.40;3.78;;;4.60;99.90;;;;;;4954874;28;20417;-77
2023/03/16 07:06:40;;;;;;;;;;;4.60;99.90;;;;;;4955002;29;20054;-83
2023/03/16 07:09:11;;;;;;;8.35;3.83;;;4.60;99.90;;;;;;4937468;29;19989;-80
2023/03/16 07:11:37;;;;;;;13.05;6.43;;;4.40;99.90;;;;;;4947749;29;20051;-80
2023/03/16 07:14:03;;;;;;;9.10;5.10;;;4.60;99.90;;;;;;4970109;28;20055;-78
2023/03/16 07:16:29;;;;;;;;;;;4.60;99.90;;;;;;4955565;28;20122;-81
2023/03/16 07:18:54;;;;;;;12.18;4.90;;;4.40;99.90;;;;;;4933315;29;19985;-81
2023/03/16 07:21:20;;;;;;;;;;;4.40;99.90;;;;;;4942382;29;20039;-83
2023/03/16 07:23:46;;;;;;;8.55;4.05;;;4.50;99.90;;;;;;4955274;29;20303;-82
2023/03/16 07:26:12;;;;;;;7.93;4.40;;;4.60;99.90;;;;;;4952694;29;20503;-82
2023/03/16 07:28:38;;;;;;;;;;;4.60;99.90;;;;;;4935513;29;20050;-82
2023/03/16 07:31:05;;;;;;;8.10;4.95;;;4.50;99.90;;;;;;4969544;28;19926;-83
2023/03/16 07:33:32;;;;;;;8.02;4.10;;;4.70;99.90;;;;;;4951715;29;20529;-83
2023/03/16 07:35:58;;;;;;;10.60;4.32;;;4.60;99.90;;;;;;4937157;29;20488;-83
2023/03/16 07:38:24;;;;;;;;;;;4.60;99.90;;;;;;4953261;29;20137;-82
2023/03/16 07:40:51;;;;;;;7.95;4.75;;;4.60;99.90;;;;;;4953727;29;19928;-83
2023/03/16 07:43:17;;;;;;;8.50;4.97;;;4.70;99.90;;;;;;4954487;29;20400;-83
2023/03/16 07:45:52;;;;;;;7.57;4.50;;;4.70;99.90;;;;;;4936269;29;20883;-84
2023/03/16 07:48:19;;;;;;;7.30;4.05;;;4.80;99.90;;;;;;4937076;29;20085;-85
2023/03/16 07:50:49;;;;;;;10.88;5.65;;;5.30;99.90;;;;;;4953738;29;20070;-84
2023/03/16 07:53:15;;;;;;;8.07;4.50;;;4.70;99.90;;;;;;4952882;29;20047;-84
2023/03/16 07:55:41;;;;;;;;;;;4.70;99.90;;;;;;4954968;29;20045;-87
2023/03/16 07:58:09;;;;;;;6.38;3.78;;;4.70;99.90;;;;;;4954593;29;19924;-82
2023/03/16 08:00:35;;;;;;;9.57;4.72;;;4.80;99.90;;;;;;4952317;29;20121;-81
2023/03/16 08:03:03;;;;;;;;;;;4.90;99.90;;;;;;4955049;29;20127;-78
2023/03/16 08:05:31;;;;;;;7.35;3.95;;;5.40;99.90;;;;;;4936774;29;19929;-86
2023/03/16 08:07:57;;;;;;;6.20;4.03;;;4.90;99.90;;;;;;4953586;29;20043;-84
2023/03/16 08:10:24;;;;;;;7.80;4.90;;;5.20;99.90;;;;;;4936617;29;20135;-86
2023/03/16 08:12:50;;;;;;;7.68;4.47;;;4.90;99.90;;;;;;4953990;29;20447;-84
2023/03/16 08:15:16;;;;;;;7.75;3.80;;;5.00;99.90;;;;;;4953550;29;20458;-82
2023/03/16 08:17:41;;;;;;;;;;;5.00;99.90;;;;;;4934689;29;20078;-82
2023/03/16 08:20:09;;;;;;;9.98;4.60;;;4.90;99.90;;;;;;4937109;29;19928;-83
2023/03/16 08:22:35;;;;;;;8.18;3.92;;;4.90;99.90;;;;;;4951817;29;20470;-83
2023/03/16 08:25:05;;;;;;;;;;;5.00;99.90;;;;;;4969586;28;20083;-82
2023/03/16 08:27:31;;;;;;;6.57;4.30;;;5.00;99.90;;;;;;4936704;29;20047;-82
2023/03/16 08:29:56;;;;;;;;;;;4.90;99.90;;;;;;4937074;29;20150;-82
2023/03/16 08:32:22;;;;;;;12.85;4.45;;;5.00;99.90;;;;;;4936466;29;20026;-82
2023/03/16 08:34:48;;;;;;;;;;;5.60;99.90;;;;;;4936655;29;20495;-83
2023/03/16 08:37:15;;;;;;;9.27;4.40;;;5.60;99.90;;;;;;4937196;29;20020;-82
2023/03/16 08:39:42;;;;;;;5.72;3.78;;;5.00;99.90;;;;;;4953895;29;20039;-82
2023/03/16 08:42:09;;;;;;;6.30;3.47;;;5.00;99.90;;;;;;4936686;29;20439;-82
2023/03/16 08:44:35;;;;;;;9.50;4.72;;;5.10;99.90;;;;;;4954056;29;20039;-83
2023/03/16 08:47:01;;;;;;;;;;;5.80;99.90;;;;;;4969142;28;20098;-82
2023/03/16 08:49:28;;;;;;;9.70;3.97;;;5.20;99.90;;;;;;4935992;29;20338;-82
2023/03/16 08:51:53;;;;;;;8.70;4.22;;;5.10;99.90;;;;;;4953877;29;20046;-83
2023/03/16 08:54:19;;;;;;;;;;;5.20;99.90;;;;;;4953955;29;20051;-77
2023/03/16 08:56:45;;;;;;;7.30;3.95;;;6.10;99.90;;;;;;4955017;28;19923;-79
2023/03/16 08:59:10;;;;;;;;;;;5.20;99.90;;;;;;4958477;29;20051;-79
2023/03/16 09:01:36;;;;;;;7.47;3.85;;;5.80;99.90;;;;;;4957368;29;19923;-78
2023/03/16 09:04:02;;;;;;;;;;;5.90;99.90;;;;;;4951984;29;20057;-79
2023/03/16 09:06:28;;;;;;;6.40;3.67;;;5.20;99.90;;;;;;4938180;29;19945;-79
2023/03/16 09:08:54;;;;;;;;;;;5.30;99.90;;;;;;4938827;29;20059;-79
2023/03/16 09:11:21;;;;;;;9.90;4.10;;;5.30;99.90;;;;;;4937442;29;20018;-80
2023/03/16 09:13:47;;;;;;;9.52;4.22;;;5.30;99.90;;;;;;4938614;29;20059;-80
2023/03/16 09:16:14;;;;;;;;;;;5.30;99.90;;;;;;4938602;29;20043;-77
2023/03/16 09:18:40;;;;;;;6.88;3.88;;;5.30;99.90;;;;;;4937216;29;19937;-79
2023/03/16 09:21:09;;;;;;;8.93;4.57;;;6.20;99.90;;;;;;4920961;29;20043;-81
2023/03/16 09:23:38;;;;;;;7.18;3.90;;;5.60;99.90;;;;;;4937656;29;20369;-79
2023/03/16 09:26:06;;;;;;;11.27;4.38;;;5.60;99.90;;;;;;4937408;29;20039;-78
2023/03/16 09:28:33;;;;;;;9.40;4.65;;;5.50;99.90;;;;;;4920649;29;20058;-77
2023/03/16 09:31:00;;;;;;;7.38;4.10;;;5.50;99.90;;;;;;4919302;29;20039;-78
2023/03/16 09:33:30;;;;;;;7.75;4.47;;;5.50;99.90;;;;;;4937795;29;20388;-77
2023/03/16 09:35:57;;;;;;;8.15;4.10;;;5.50;99.90;;;;;;4938150;29;20039;-75
2023/03/16 09:38:25;;;;;;;6.72;3.70;;;5.90;99.90;;;;;;4937198;29;20066;-79
2023/03/16 09:41:07;;;;;;;12.90;4.10;;;5.40;99.90;;;;;;4936861;29;20509;-77
2023/03/16 09:43:48;;;;;;;9.30;5.07;;;5.50;99.90;;;;;;4937599;29;20061;-76
2023/03/16 09:46:46;;;;;;;7.70;4.32;;;5.50;99.90;;;;;;4935633;29;20043;-76
2023/03/16 09:49:16;;;;;;;7.90;4.10;;;5.50;99.90;;;;;;4899689;29;20048;-75
2023/03/16 09:52:03;;;;;;;8.73;4.32;;;5.50;99.90;;;;;;4937367;29;20047;-75
2023/03/16 09:54:48;;;;;;;8.65;4.07;;;5.50;99.90;;;;;;4920695;29;20484;-75
2023/03/16 09:57:27;;;;;;;6.97;4.22;;;5.50;99.90;;;;;;4920685;29;20075;-77
2023/03/16 10:00:20;;;;;;;9.90;4.70;;;5.50;99.90;;;;;;4936823;29;20043;-78
2023/03/16 10:03:20;;;;;;;7.80;4.13;;;6.20;99.90;;;;;;4935716;29;20052;-77
2023/03/16 10:05:51;;;;;;;5.55;3.40;;;5.60;99.90;;;;;;4933834;29;20408;-77
2023/03/16 10:08:21;;;;;;;8.45;4.50;;;5.60;99.90;;;;;;4935874;29;20391;-75
2023/03/16 10:11:12;;;;;;;7.53;4.13;;;5.60;99.90;;;;;;4920477;29;20043;-76
2023/03/16 10:13:48;;;;;;;7.43;4.32;;;5.60;99.90;;;;;;4936297;29;20115;-76
2023/03/16 10:16:17;;;;;;;;;;;5.60;99.90;;;;;;4937614;29;20201;-75
2023/03/16 10:18:45;;;;;;;11.07;4.88;;;5.60;99.90;;;;;;4919967;29;19919;-75
2023/03/16 10:21:17;;;;;;;13.40;6.80;;;5.70;99.90;;;;;;4936510;29;20122;-75
2023/03/16 10:23:45;;;;;;;13.18;5.97;;;5.80;99.90;;;;;;4936544;29;20535;-77
2023/03/16 10:26:30;;;;;;;11.30;6.20;;;5.70;99.90;;;;;;4935999;29;20150;-77
2023/03/16 10:28:55;;;;;;;10.35;5.65;;;5.80;99.90;;;;;;4936106;29;20515;-77
2023/03/16 10:31:21;;;;;;;;;;;5.90;99.90;;;;;;4937233;29;20047;-76
2023/03/16 10:33:54;;;;;;;11.52;5.70;;;6.00;99.90;;;;;;4920010;29;19930;-76
2023/03/16 10:36:35;;;;;;;7.63;4.75;;;6.10;99.90;;;;;;4914244;29;20048;-75
2023/03/16 10:39:12;;;;;;;9.88;4.70;;;6.20;99.90;;;;;;4918265;29;20353;-77
2023/03/16 10:41:44;;;;;;;8.68;4.75;;;6.30;99.90;;;;;;4931799;29;20412;-77
2023/03/16 10:44:15;;;;;;;8.13;3.60;;;6.40;99.90;;;;;;4901052;29;20048;-76
2023/03/16 10:47:07;;;;;;;8.68;5.25;;;6.60;99.90;;;;;;4917358;29;20111;-76
2023/03/16 10:49:50;;;;;;;9.55;4.60;;;6.50;99.90;;;;;;4915511;29;20064;-76
2023/03/16 10:52:28;;;;;;;10.27;5.28;;;6.60;99.90;;;;;;4917866;29;20108;-76
2023/03/16 10:55:09;;;;;;;9.43;4.13;;;6.60;99.90;;;;;;4900665;29;20079;-75
2023/03/16 10:57:42;;;;;;;10.13;4.57;;;6.70;99.90;;;;;;4899485;29;20117;-75
2023/03/16 11:00:20;;;;;;;9.25;4.50;;;6.70;99.90;;;;;;4934021;29;20036;-78
2023/03/16 11:02:53;;;;;;;14.75;4.93;;;6.80;99.90;;;;;;4918457;29;20090;-75
2023/03/16 11:05:25;;;;;;;7.18;3.25;;;6.90;99.90;;;;;;4948668;29;20051;-75
2023/03/16 11:08:12;;;;;;;4.82;3.40;;;6.90;99.90;;;;;;4955095;29;20443;-76
2023/03/16 11:10:44;;;;;;;7.82;4.93;;;7.00;99.90;;;;;;4953458;29;20047;-76
2023/03/16 11:13:18;;;;;;;5.97;3.83;;;7.00;99.90;;;;;;4955015;29;20051;-76
2023/03/16 11:16:00;;;;;;;7.60;3.92;;;7.50;99.90;;;;;;4955394;28;20423;-74
2023/03/16 11:18:30;;;;;;;6.70;3.75;;;8.30;99.90;;;;;;4956994;29;20451;-76
2023/03/16 11:21:01;;;;;;;7.30;3.92;;;7.40;99.90;;;;;;4955262;28;20118;-75
2023/03/16 11:23:33;;;;;;;5.97;3.65;;;7.30;99.90;;;;;;4968689;28;20047;-79
2023/03/16 11:26:03;;;;;;;6.88;4.13;;;8.30;99.90;;;;;;4955305;29;20440;-77
2023/03/16 11:28:37;;;;;;;8.00;3.92;;;7.60;99.90;;;;;;4954795;29;20047;-72
2023/03/16 11:31:27;;;;;;;8.10;4.00;;;7.80;99.90;;;;;;4954555;29;20050;-75
2023/03/16 11:33:54;;;;;;;10.32;4.00;;;8.10;99.90;;;;;;4953480;29;20125;-73
2023/03/16 11:36:38;;;;;;;9.77;3.53;;;9.00;99.90;;;;;;4953850;29;20051;-76
2023/03/16 11:39:17;;;;;;;9.48;3.47;;;8.40;99.90;;;;;;4937061;29;20047;-75
2023/03/16 11:42:02;;;;;;;6.18;3.65;;;8.40;99.90;;;;;;4955110;29;20134;-75
2023/03/16 11:44:35;;;;;;;6.05;3.50;;;8.60;99.90;;;;;;4937015;29;20039;-76
2023/03/16 11:47:38;;;;;;;5.85;3.25;;;8.60;99.90;;;;;;4953165;29;20098;-78
2023/03/16 11:50:32;;;;;;;9.55;4.05;;;8.80;99.90;;;;;;4955032;29;20047;-77
2023/03/16 11:53:29;;;;;;;5.63;3.20;;;8.80;99.90;;;;;;4959734;28;20055;-75
2023/03/16 11:56:10;;;;;;;6.55;3.30;;;8.90;99.90;;;;;;4937703;29;20047;-77
2023/03/16 11:59:09;;;;;;;5.43;3.33;;;8.90;99.90;;;;;;4936623;29;20139;-75
2023/03/16 12:02:10;;;;;;;5.95;2.80;;;8.80;99.90;;;;;;4953073;29;20051;-77
2023/03/16 12:04:43;;;;;;;6.65;3.17;;;8.70;99.90;;;;;;4928630;29;20051;-76
2023/03/16 12:07:28;;;;;;;4.55;2.97;;;8.80;99.90;;;;;;4917659;29;20059;-80
2023/03/16 12:10:22;;;;;;;5.88;3.92;;;8.80;99.90;;;;;;4935363;29;20051;-80
2023/03/16 12:13:10;;;;;;;7.85;3.10;;;9.00;99.90;;;;;;4917955;29;20066;-79
2023/03/16 12:15:37;;;;;;;9.23;4.00;;;8.90;99.90;;;;;;4917935;29;20050;-78
2023/03/16 12:18:14;;;;;;;6.90;3.30;;;8.90;99.90;;;;;;4922804;29;20518;-78
2023/03/16 12:20:52;;;;;;;5.47;3.25;;;8.90;99.90;;;;;;4934189;29;20496;-78
2023/03/16 12:23:28;;;;;;;7.68;3.42;;;9.00;99.90;;;;;;4935290;29;20389;-78
2023/03/16 12:25:57;;;;;;;7.32;3.33;;;9.00;99.90;;;;;;4950250;29;20074;-79
2023/03/16 12:28:25;;;;;;;7.28;2.88;;;9.60;99.90;;;;;;4917509;29;20047;-78
2023/03/16 12:31:12;;;;;;;4.90;3.38;;;9.00;99.90;;;;;;4935336;29;20084;-79
2023/03/16 12:34:02;;;;;;;5.95;3.25;;;9.00;99.90;;;;;;4939136;29;20119;-78
2023/03/16 12:36:59;;;;;;;9.13;3.90;;;9.00;99.90;;;;;;4922081;29;20055;-76
2023/03/16 12:39:34;;;;;;;5.90;3.30;;;8.90;99.90;;;;;;4938216;29;20440;-76
2023/03/16 12:42:14;;;;;;;7.68;3.25;;;8.90;99.90;;;;;;4937220;29;20056;-75
2023/03/16 12:44:47;;;;;;;5.88;3.20;;;8.90;99.90;;;;;;4920935;29;20052;-76
2023/03/16 12:47:19;;;;;;;6.43;3.47;;;9.70;99.90;;;;;;4935160;29;20047;-75
2023/03/16 12:49:45;;;;;;;5.78;3.25;;;8.80;99.90;;;;;;4921089;29;20058;-79
2023/03/16 12:52:12;;;;;;;;;;;8.80;99.90;;;;;;4922018;29;20047;-74
2023/03/16 12:55:04;;;;;;;;;;;8.90;99.90;;;;;;4938250;29;20454;-76
2023/03/16 12:57:39;;;;;;;5.47;3.28;;;8.90;99.90;;;;;;4936847;29;19930;-76
2023/03/16 13:00:08;;;;;;;5.85;3.30;;;8.90;99.90;;;;;;4921462;29;20058;-76
2023/03/16 13:02:37;;;;;;;8.77;3.65;;;9.00;99.90;;;;;;4937773;29;20042;-80
2023/03/16 13:05:16;;;;;;;6.90;4.07;;;8.90;99.90;;;;;;4950392;29;20055;-78
2023/03/16 13:07:51;;;;;;;5.68;2.83;;;9.00;99.90;;;;;;4957473;29;20035;-79
2023/03/16 13:10:19;;;;;;;6.60;3.53;;;9.00;99.90;;;;;;4972180;28;20106;-78
2023/03/16 13:12:46;;;;;;;5.60;3.20;;;9.30;99.90;;;;;;4956471;28;20390;-78
2023/03/16 13:15:22;;;;;;;6.50;3.42;;;9.30;99.90;;;;;;4972607;28;20057;-79
2023/03/16 13:18:08;;;;;;;5.45;3.42;;;9.50;99.90;;;;;;4956945;29;20122;-79
2023/03/16 13:20:54;;;;;;;10.88;3.67;;;9.60;99.90;;;;;;4956651;29;20499;-79
2023/03/16 13:23:22;;;;;;;6.07;3.70;;;9.50;99.90;;;;;;4955726;29;20581;-78
2023/03/16 13:26:02;;;;;;;6.47;4.25;;;9.50;99.90;;;;;;4957636;29;20054;-78
2023/03/16 13:28:37;;;;;;;11.23;4.03;;;9.60;99.90;;;;;;4948518;29;20043;-86
2023/03/16 13:31:18;;;;;;;7.57;4.25;;;9.50;99.90;;;;;;4954592;29;20035;-77